NCAR-RAP Real-Time Weather Data

Output produced by METARs form (23 February 2020  02:36 UTC)
found at http://weather.rap.ucar.edu/surface/
 
KOKC 230152Z 16009KT 10SM SCT130 BKN200 11/02 A3009 RMK AO2 SLP193 T01110022
KOKC 230052Z 17013KT 10SM BKN120 BKN150 OVC200 12/02 A3009 RMK AO2 SLP192 T01220017
KOKC 222352Z 18011KT 10SM SCT110 BKN140 BKN200 13/02 A3009 RMK AO2 SLP190 VIRGA SE-S T01330017 10161 20128 55011
KOKC 222252Z 18013KT 10SM SCT140 BKN170 BKN250 14/02 A3008 RMK AO2 SLP189 T01390017
KOKC 222152Z 19011G22KT 10SM SCT140 BKN180 BKN250 14/02 A3011 RMK AO2 SLP196 T01440017
KOKC 222052Z 19016G22KT 10SM SCT180 BKN250 16/02 A3012 RMK AO2 SLP201 T01560017 56038
KOKC 221952Z 18013KT 10SM SCT150 BKN250 13/02 A3015 RMK AO2 SLP211 T01330017
KOKC 221852Z 18018G22KT 10SM BKN150 BKN250 13/01 A3020 RMK AO2 SLP229 T01280011
KOKC 221752Z 20015G21KT 10SM BKN150 BKN250 13/01 A3024 RMK AO2 SLP242 T01280011 10133 21011 58018
KOKC 221652Z 19013G21KT 10SM FEW150 BKN250 10/00 A3026 RMK AO2 SLP252 T01000000
KOKC 221552Z 19016KT 10SM BKN150 BKN250 07/M01 A3028 RMK AO2 SLP260 T00671011
KOKC 221452Z 18013KT 10SM FEW100 BKN150 BKN250 04/M02 A3029 RMK AO2 SLP265 T00441022 53002
KOKC 221352Z 17009KT 10SM BKN055 BKN150 BKN250 02/M04 A3028 RMK AO2 SLP260 T00221039
KOKC 221252Z 16006KT 10SM BKN250 00/M06 A3028 RMK AO2 SLP263 T00001056
KOKC 221152Z 16008KT 10SM BKN250 00/M05 A3029 RMK AO2 SLP262 T00001050 10017 21006 56013
KOKC 221052Z 17007KT 10SM BKN250 01/M05 A3029 RMK AO2 SLP262 T00061050
KOKC 220952Z 17008KT 10SM BKN250 01/M06 A3030 RMK AO2 SLP265 T00061056
KOKC 220852Z 17009KT 10SM BKN250 01/M06 A3033 RMK AO2 SLP275 T00061056 58015
KOKC 220752Z 17007KT 10SM FEW250 01/M06 A3035 RMK AO2 SLP283 T00111056
KOKC 220652Z 18010KT 10SM SCT250 02/M06 A3037 RMK AO2 SLP291 T00171061
KOKC 220552Z 16007KT 10SM SCT250 01/M06 A3037 RMK AO2 SLP293 T00111061 10067 20000 400941083 56018
KOKC 220452Z 17006KT 10SM FEW250 00/M06 A3039 RMK AO2 SLP301 T00001061
KOKC 220352Z 18005KT 10SM FEW250 02/M06 A3040 RMK AO2 SLP306 T00171061
KOKC 220252Z 18006KT 10SM SCT200 BKN250 02/M07 A3043 RMK AO2 SLP315 T00221067 50004
KOKC 220152Z 18006KT 10SM BKN250 02/M07 A3043 RMK AO2 SLP319 T00221072
KOKC 220052Z 17007KT 10SM BKN200 BKN250 04/M08 A3042 RMK AO2 SLP314 T00441078
KOKC 212352Z 16009KT 10SM BKN200 BKN250 07/M08 A3042 RMK AO2 SLP311 T00671083 10094 20028 56031
KOKC 212252Z 18009KT 10SM BKN250 08/M08 A3045 RMK AO2 SLP322 T00781083
KOKC 212152Z 19009KT 10SM BKN200 09/M08 A3047 RMK AO2 SLP330 T00891083
KOKC 212052Z 20010KT 10SM BKN250 08/M09 A3051 RMK AO2 SLP342 T00781089 56047
KOKC 211952Z 19008KT 10SM BKN250 07/M08 A3055 RMK AO2 SLP354 T00721083
KOKC 211852Z 19005KT 10SM FEW250 05/M08 A3060 RMK AO2 PRESFR SLP371 T00501083
KOKC 211752Z VRB04KT 10SM FEW250 03/M09 A3066 RMK AO2 SLP393 T00281089 10028 21083 58011
KOKC 211652Z 24004KT 10SM FEW250 01/M09 A3069 RMK AO2 SLP404 T00111089
KOKC 211552Z 21003KT 10SM FEW250 M02/M08 A3069 RMK AO2 SLP407 T10171083
KOKC 211452Z 00000KT 10SM CLR M04/M07 A3069 RMK AO2 SLP407 T10391067 53005
KOKC 211352Z 25003KT 10SM FEW250 M08/M09 A3068 RMK AO2 SLP404 T10781094
KOKC 211252Z 35003KT 10SM CLR M08/M10 A3067 RMK AO2 SLP401 T10781100
KOKC 211152Z 00000KT 10SM CLR M08/M10 A3068 RMK AO2 SLP402 T10781100 11028 21083 55006
KOKC 211052Z 29003KT 10SM CLR M08/M10 A3068 RMK AO2 SLP401 T10781100
KOKC 210952Z 29004KT 10SM CLR M08/M10 A3068 RMK AO2 SLP403 T10781100
KOKC 210852Z 01006KT 10SM CLR M06/M09 A3069 RMK AO2 SLP406 T10561094 58008
KOKC 210752Z 36005KT 10SM CLR M04/M09 A3072 RMK AO2 SLP413 T10441094
KOKC 210652Z 03006KT 10SM CLR M04/M09 A3072 RMK AO2 SLP414 T10391089
KOKC 210552Z 01008KT 10SM CLR M03/M09 A3072 RMK AO2 SLP415 T10281089 10028 21028 400611028 50005
KOKC 210452Z 01008KT 10SM CLR M02/M08 A3073 RMK AO2 SLP417 T10221083
KOKC 210352Z 01008KT 10SM CLR M01/M08 A3072 RMK AO2 SLP416 T10111078
KOKC 210252Z 01011KT 10SM CLR 00/M06 A3070 RMK AO2 SLP408 T00001061 51016